Time;durP1;ratioP1;P1;durP2;ratioP2;P2;SDS_P1;SDS_P2;PMS_P1;PMS_P2;Temp;Humidity;BMP_temperature;BMP_pressure;BME280_temperature;BME280_humidity;BME280_pressure;Samples;Min_cycle;Max_cycle;Signal;HPM_P1;HPM_P2
2022/08/28 00:00:37;;;;;;;20.40;18.40;;;;;;;20.72;100.00;98069.16;4171264;28;20751;-85
2022/08/28 00:02:40;;;;;;;19.03;17.23;;;;;;;20.69;99.42;98077.44;4171815;28;20616;-85
2022/08/28 00:04:43;;;;;;;20.33;18.07;;;;;;;20.64;99.36;98083.22;4174461;28;20614;-85
2022/08/28 00:06:48;;;;;;;20.47;18.43;;;;;;;20.64;99.49;98071.78;4174843;28;20662;-85
2022/08/28 00:08:51;;;;;;;19.93;17.83;;;;;;;20.62;98.95;98077.25;4171540;28;20735;-85
2022/08/28 00:10:54;;;;;;;21.77;19.27;;;;;;;20.61;100.00;98082.72;4172151;28;20632;-85
2022/08/28 00:12:58;;;;;;;22.37;18.10;;;;;;;20.58;100.00;98078.59;4174796;28;20691;-85
2022/08/28 00:15:01;;;;;;;19.83;17.77;;;;;;;20.58;99.69;98080.41;4175213;28;20693;-85
2022/08/28 00:17:04;;;;;;;23.80;18.47;;;;;;;20.56;100.00;98071.78;4175265;28;20656;-85
2022/08/28 00:19:09;;;;;;;21.10;19.00;;;;;;;20.54;98.70;98076.44;4174745;28;20636;-85
2022/08/28 00:21:13;;;;;;;19.93;18.00;;;;;;;20.52;99.61;98073.09;4172565;28;20586;-85
2022/08/28 00:23:18;;;;;;;20.03;18.03;;;;;;;20.50;99.45;98075.09;4162128;28;20969;-85
2022/08/28 00:25:23;;;;;;;20.90;18.73;;;;;;;20.50;99.47;98069.81;4170130;28;20621;-85
2022/08/28 00:29:47;;;;;;;19.53;17.63;;;;;;;20.45;99.44;98072.13;4167524;28;20629;-85
2022/08/28 00:31:52;;;;;;;20.57;18.07;;;;;;;20.41;100.00;98074.28;4177925;28;21000;-85
2022/08/28 00:33:55;;;;;;;19.03;17.23;;;;;;;20.38;100.00;98068.47;4171092;28;20719;-85
2022/08/28 00:35:58;;;;;;;18.47;16.70;;;;;;;20.37;99.24;98069.47;4172417;28;20626;-85
2022/08/28 00:38:01;;;;;;;18.50;16.60;;;;;;;20.33;99.87;98074.28;4173751;28;21014;-85
2022/08/28 00:40:07;;;;;;;20.93;18.70;;;;;;;20.31;98.64;98070.13;4172225;28;20629;-85
2022/08/28 00:42:10;;;;;;;19.27;17.43;;;;;;;20.30;99.80;98072.94;4174754;28;20654;-85
2022/08/28 00:44:16;;;;;;;22.93;18.70;;;;;;;20.29;100.00;98068.66;4174785;28;20652;-85
2022/08/28 00:46:21;;;;;;;18.70;16.77;;;;;;;20.31;99.66;98074.59;4174830;28;20621;-85
2022/08/28 00:48:25;;;;;;;19.20;17.37;;;;;;;20.30;100.00;98078.22;4173663;28;20637;-85
2022/08/28 00:52:04;;;;;;;18.37;16.57;;;;;;;20.30;100.00;98072.94;4177987;28;20610;-85
2022/08/28 00:52:57;;;;;;;18.03;16.23;;;;;;;20.31;100.00;98066.66;4173744;28;21025;-85
2022/08/28 00:55:04;;;;;;;18.27;16.37;;;;;;;20.29;100.00;98069.47;4177481;28;21065;-85
2022/08/28 00:57:10;;;;;;;22.07;17.23;;;;;;;20.27;99.60;98074.13;4173846;28;21003;-85
2022/08/28 00:59:16;;;;;;;19.80;17.80;;;;;;;20.26;100.00;98067.16;4173093;28;20716;-85
2022/08/28 01:01:19;;;;;;;22.60;17.80;;;;;;;20.24;100.00;98068.31;4178123;28;21165;-85
2022/08/28 01:03:23;;;;;;;19.97;18.07;;;;;;;20.22;100.00;98060.53;4186821;28;21198;-85
2022/08/28 01:05:29;;;;;;;21.50;19.00;;;;;;;20.18;100.00;98068.97;4171471;28;20621;-85
2022/08/28 01:07:33;;;;;;;20.10;18.07;;;;;;;20.20;100.00;98065.16;4170425;28;21254;-84
2022/08/28 01:09:38;;;;;;;18.70;16.70;;;;;;;20.19;100.00;98066.16;4174448;28;20798;-85
2022/08/28 01:11:43;;;;;;;20.50;18.40;;;;;;;20.16;100.00;98065.66;4178088;28;20664;-85
2022/08/28 01:13:49;;;;;;;19.07;17.17;;;;;;;20.15;100.00;98069.31;4170921;28;20700;-85
2022/08/28 01:15:54;;;;;;;18.37;16.33;;;;;;;20.14;100.00;98067.66;4170577;28;20641;-85
2022/08/28 01:18:00;;;;;;;18.77;16.77;;;;;;;20.14;100.00;98070.28;4170442;28;20750;-85
2022/08/28 01:20:13;;;;;;;21.10;17.33;;;;;;;20.10;100.00;98071.59;4173920;28;20625;-85
2022/08/28 01:22:21;;;;;;;18.70;16.80;;;;;;;20.09;99.41;98067.31;4170295;28;20642;-85
2022/08/28 01:24:26;;;;;;;18.63;16.73;;;;;;;20.09;100.00;98069.97;4174821;28;21236;-85
2022/08/28 01:26:31;;;;;;;19.57;17.57;;;;;;;20.08;100.00;98065.66;4172821;28;20625;-85
2022/08/28 01:28:34;;;;;;;18.80;17.00;;;;;;;20.09;100.00;98069.97;4177767;28;20670;-85
2022/08/28 01:30:38;;;;;;;19.33;17.40;;;;;;;20.11;100.00;98073.28;4173853;28;20682;-85
2022/08/28 01:32:46;;;;;;;19.70;17.70;;;;;;;20.12;100.00;98069.63;4170708;28;20681;-85
2022/08/28 01:34:49;;;;;;;19.27;17.37;;;;;;;20.11;100.00;98068.78;4174596;28;20731;-84
2022/08/28 01:36:52;;;;;;;18.87;16.87;;;;;;;20.12;100.00;98067.00;4177440;28;20632;-85
2022/08/28 01:39:02;;;;;;;17.90;16.20;;;;;;;20.12;100.00;98070.47;4170846;28;20631;-85
2022/08/28 01:41:07;;;;;;;19.50;17.50;;;;;;;20.12;100.00;98070.47;4168772;28;20660;-85
2022/08/28 01:43:14;;;;;;;19.87;17.30;;;;;;;20.12;100.00;98070.47;4166755;28;20693;-85
2022/08/28 01:45:19;;;;;;;19.43;17.43;;;;;;;20.11;100.00;98078.56;4156561;28;20617;-85
2022/08/28 01:47:23;;;;;;;19.47;17.37;;;;;;;20.08;100.00;98076.25;4186931;28;20772;-85
2022/08/28 01:49:28;;;;;;;19.37;17.37;;;;;;;20.05;100.00;98066.78;4158912;28;20648;-85
2022/08/28 01:51:31;;;;;;;19.33;17.33;;;;;;;20.05;100.00;98079.22;4156858;28;20637;-84
2022/08/28 01:53:41;;;;;;;22.20;18.07;;;;;;;20.05;100.00;98073.91;4161085;28;20755;-84
2022/08/28 01:55:49;;;;;;;19.70;16.67;;;;;;;20.04;100.00;98072.25;4170355;28;20635;-84
2022/08/28 01:57:55;;;;;;;19.50;17.50;;;;;;;20.01;100.00;98070.78;4172655;28;20667;-84
2022/08/28 01:59:58;;;;;;;18.90;17.10;;;;;;;19.99;100.00;98070.09;4175066;28;20632;-84
2022/08/28 02:02:02;;;;;;;18.40;16.40;;;;;;;19.98;100.00;98070.25;4177525;28;20640;-85
2022/08/28 02:04:06;;;;;;;20.03;16.73;;;;;;;19.97;100.00;98073.91;4169813;28;20676;-84
2022/08/28 02:06:10;;;;;;;20.63;18.40;;;;;;;19.98;100.00;98076.41;4174449;28;21266;-85
2022/08/28 02:08:14;;;;;;;20.23;17.60;;;;;;;19.99;100.00;98077.22;4170544;28;21213;-84
2022/08/28 02:10:17;;;;;;;23.37;17.70;;;;;;;19.97;100.00;98080.03;4177603;28;20635;-85
2022/08/28 02:12:21;;;;;;;18.70;16.87;;;;;;;19.97;100.00;98081.84;4174126;28;21186;-85
2022/08/28 02:14:26;;;;;;;18.60;16.70;;;;;;;19.97;100.00;98084.50;4176077;28;21097;-85
2022/08/28 02:16:29;;;;;;;19.20;17.20;;;;;;;19.95;100.00;98084.66;4171444;28;20639;-85
2022/08/28 02:18:33;;;;;;;19.10;16.43;;;;;;;19.94;100.00;98085.66;4171902;28;21003;-85
2022/08/28 02:20:36;;;;;;;19.90;16.60;;;;;;;19.93;100.00;98085.81;4175046;28;20671;-85
2022/08/28 02:22:40;;;;;;;20.70;18.17;;;;;;;19.93;100.00;98086.63;4179435;28;20643;-84
2022/08/28 02:24:44;;;;;;;20.27;18.13;;;;;;;19.95;100.00;98082.03;4170952;28;21078;-85
2022/08/28 02:26:47;;;;;;;20.63;18.07;;;;;;;19.95;100.00;98078.53;4176236;28;20642;-85
2022/08/28 02:28:51;;;;;;;19.87;17.20;;;;;;;19.96;100.00;98085.50;4173403;28;20645;-84
2022/08/28 02:30:56;;;;;;;19.53;17.53;;;;;;;19.97;100.00;98085.31;4176087;28;20647;-85
2022/08/28 02:33:00;;;;;;;18.83;16.00;;;;;;;19.98;100.00;98084.34;4170061;28;20649;-84
2022/08/28 02:35:05;;;;;;;18.07;16.00;;;;;;;19.97;100.00;98080.03;4194288;28;20668;-84
2022/08/28 02:37:13;;;;;;;19.30;17.30;;;;;;;19.96;100.00;98090.78;4174351;28;20680;-85
2022/08/28 02:39:17;;;;;;;17.97;16.07;;;;;;;19.95;100.00;98086.47;4180391;28;21238;-85
2022/08/28 02:41:21;;;;;;;18.77;16.43;;;;;;;19.95;100.00;98095.25;4177013;28;20640;-85
2022/08/28 02:43:24;;;;;;;18.73;16.73;;;;;;;19.98;100.00;98088.78;4176518;28;20634;-85
2022/08/28 02:45:28;;;;;;;21.80;16.03;;;;;;;19.98;100.00;98086.16;4175672;28;20647;-84
2022/08/28 02:47:32;;;;;;;18.97;17.07;;;;;;;19.98;100.00;98089.66;4176237;28;20679;-85
2022/08/28 02:49:36;;;;;;;18.80;17.00;;;;;;;19.99;100.00;98085.97;4175266;28;20652;-85
2022/08/28 02:51:39;;;;;;;22.37;17.70;;;;;;;19.99;100.00;98078.03;4173601;28;20637;-85
2022/08/28 02:53:43;;;;;;;19.57;17.43;;;;;;;20.01;100.00;98080.53;4175821;28;21207;-85
2022/08/28 02:55:46;;;;;;;20.37;18.17;;;;;;;20.04;100.00;98082.84;4176854;28;21197;-84
2022/08/28 02:57:51;;;;;;;19.57;17.57;;;;;;;20.07;100.00;98082.53;4175923;28;21226;-84
2022/08/28 02:59:55;;;;;;;19.20;17.20;;;;;;;20.11;100.00;98083.88;4180000;28;20631;-85
2022/08/28 03:01:59;;;;;;;20.47;18.27;;;;;;;20.13;100.00;98088.00;4174445;28;20636;-85
2022/08/28 03:04:04;;;;;;;19.90;16.60;;;;;;;20.16;100.00;98087.69;4176138;28;20687;-85
2022/08/28 03:06:07;;;;;;;22.17;18.90;;;;;;;20.18;100.00;98087.53;4174681;28;20636;-85
2022/08/28 03:08:10;;;;;;;19.17;17.17;;;;;;;20.21;100.00;98084.56;4173358;28;20669;-85
2022/08/28 03:10:15;;;;;;;25.10;17.53;;;;;;;20.21;100.00;98082.72;4178317;28;20644;-85
2022/08/28 03:12:22;;;;;;;22.60;18.53;;;;;;;20.25;100.00;98085.84;4172785;28;20617;-85
2022/08/28 03:14:26;;;;;;;19.40;16.30;;;;;;;20.25;100.00;98091.16;4175936;28;20651;-85
2022/08/28 03:16:29;;;;;;;18.53;16.63;;;;;;;20.23;100.00;98082.56;4170897;28;20637;-85
2022/08/28 03:18:33;;;;;;;18.00;16.13;;;;;;;20.22;100.00;98083.53;4177870;28;21001;-85
2022/08/28 03:20:37;;;;;;;20.10;15.50;;;;;;;20.21;100.00;98087.19;4173112;28;20624;-84
2022/08/28 03:25:01;;;;;;;17.10;15.33;;;;;;;20.18;100.00;98084.88;4153321;28;20671;-85
2022/08/28 03:27:05;;;;;;;19.50;16.30;;;;;;;20.17;99.86;98089.31;4158376;28;20633;-85
2022/08/28 03:29:08;;;;;;;18.23;16.33;;;;;;;20.17;100.00;98084.03;4172989;28;20633;-84
2022/08/28 03:31:14;;;;;;;19.27;17.27;;;;;;;20.18;100.00;98091.00;4175915;28;20723;-84
2022/08/28 03:33:18;;;;;;;22.83;17.27;;;;;;;20.17;99.94;98083.22;4159644;28;20640;-85
2022/08/28 03:35:21;;;;;;;17.80;16.10;;;;;;;20.17;99.67;98088.50;4177857;28;21262;-85
2022/08/28 03:37:25;;;;;;;18.97;17.00;;;;;;;20.15;100.00;98086.03;4172907;28;20641;-85
2022/08/28 03:39:28;;;;;;;18.60;16.60;;;;;;;20.15;100.00;98085.22;4190236;28;21203;-84
2022/08/28 03:41:32;;;;;;;17.93;16.13;;;;;;;20.13;100.00;98089.81;4174658;28;20655;-85
2022/08/28 03:43:35;;;;;;;17.47;15.67;;;;;;;20.13;100.00;98088.00;4172609;28;20647;-85
2022/08/28 03:45:39;;;;;;;17.60;15.80;;;;;;;20.13;100.00;98090.66;4154147;28;20620;-84
2022/08/28 03:47:42;;;;;;;18.60;16.60;;;;;;;20.14;100.00;98088.84;4173555;28;20683;-85
2022/08/28 03:49:45;;;;;;;26.17;16.50;;;;;;;20.14;100.00;98094.94;4174970;28;20656;-85
2022/08/28 03:51:48;;;;;;;17.63;15.80;;;;;;;20.11;100.00;98086.50;4157809;28;20649;-85
2022/08/28 03:53:52;;;;;;;16.83;15.03;;;;;;;20.11;100.00;98089.97;4171804;28;21275;-85
2022/08/28 03:55:56;;;;;;;17.10;15.50;;;;;;;20.13;100.00;98095.13;4174850;28;20652;-85
2022/08/28 03:57:59;;;;;;;18.03;16.23;;;;;;;20.13;100.00;98081.88;4160180;28;20651;-85
2022/08/28 04:00:07;;;;;;;20.57;16.70;;;;;;;20.13;100.00;98084.50;4178655;28;20649;-85
2022/08/28 04:02:13;;;;;;;18.23;15.77;;;;;;;20.12;100.00;98086.34;4171953;28;20676;-85
2022/08/28 04:04:16;;;;;;;17.73;15.87;;;;;;;20.11;100.00;98089.97;4172020;28;20625;-85
2022/08/28 04:06:19;;;;;;;18.07;16.30;;;;;;;20.12;100.00;98090.84;4176290;28;21005;-85
2022/08/28 04:08:23;;;;;;;21.03;16.80;;;;;;;20.11;100.00;98091.81;4179464;28;20648;-85
2022/08/28 04:10:28;;;;;;;21.40;16.17;;;;;;;20.10;100.00;98093.63;4173676;28;20631;-85
2022/08/28 04:12:31;;;;;;;18.33;16.43;;;;;;;20.10;100.00;98093.63;4157851;28;20626;-85
2022/08/28 04:14:37;;;;;;;19.67;16.33;;;;;;;20.08;100.00;98094.78;4171757;28;20686;-85
2022/08/28 04:16:40;;;;;;;18.13;16.13;;;;;;;20.07;100.00;98101.91;4176905;28;20652;-85
2022/08/28 04:18:43;;;;;;;19.50;17.20;;;;;;;20.08;100.00;98105.38;4172575;28;21211;-84
2022/08/28 04:20:46;;;;;;;17.57;15.77;;;;;;;20.08;100.00;98100.91;4173380;28;20662;-85
2022/08/28 04:22:50;;;;;;;17.97;16.07;;;;;;;20.08;100.00;98097.44;4178645;28;20651;-85
2022/08/28 04:24:57;;;;;;;18.87;16.60;;;;;;;20.08;100.00;98100.91;4172443;28;20625;-84
2022/08/28 04:27:01;;;;;;;18.23;16.27;;;;;;;20.11;100.00;98107.69;4162158;28;20613;-85
2022/08/28 04:29:05;;;;;;;18.20;16.23;;;;;;;20.10;100.00;98109.53;4176333;28;20726;-84
2022/08/28 04:31:08;;;;;;;23.53;16.93;;;;;;;20.10;100.00;98108.69;4175397;28;20629;-85
2022/08/28 04:33:11;;;;;;;17.77;15.97;;;;;;;20.11;100.00;98113.00;4178662;28;20682;-85
2022/08/28 04:35:14;;;;;;;17.33;15.63;;;;;;;20.11;99.65;98105.88;4177381;28;20641;-84
2022/08/28 04:37:18;;;;;;;17.80;13.60;;;;;;;20.11;99.99;98105.88;4171916;28;20638;-85
2022/08/28 04:39:21;;;;;;;19.07;16.00;;;;;;;20.13;100.00;98111.84;4161485;28;20713;-85
2022/08/28 04:41:24;;;;;;;17.13;15.37;;;;;;;20.15;100.00;98117.00;4170014;28;20682;-85
2022/08/28 04:43:28;;;;;;;18.43;16.30;;;;;;;20.15;99.63;98109.03;4190771;28;20686;-85
2022/08/28 04:45:31;;;;;;;16.80;15.00;;;;;;;20.14;99.72;98115.31;4177945;28;20652;-85
2022/08/28 04:47:36;;;;;;;19.70;16.67;;;;;;;20.12;98.85;98110.19;4170319;28;20697;-85
2022/08/28 04:49:40;;;;;;;18.23;16.33;;;;;;;20.04;99.35;98112.84;4170587;28;20708;-85
2022/08/28 04:51:43;;;;;;;18.20;16.30;;;;;;;20.01;98.77;98105.22;4173168;28;20652;-85
2022/08/28 04:53:48;;;;;;;20.10;16.47;;;;;;;20.03;99.33;98110.34;4171520;28;20644;-85
2022/08/28 04:55:52;;;;;;;18.27;16.33;;;;;;;20.04;100.00;98101.38;4161210;28;20661;-85
2022/08/28 04:57:57;;;;;;;18.00;14.97;;;;;;;20.05;99.97;98111.00;4161760;28;20621;-85
2022/08/28 05:00:01;;;;;;;17.80;15.50;;;;;;;20.07;99.18;98119.59;4174547;28;20718;-85
2022/08/28 05:02:05;;;;;;;18.50;16.20;;;;;;;20.08;99.84;98114.13;4174708;28;20690;-85
2022/08/28 05:04:10;;;;;;;17.40;15.20;;;;;;;20.10;99.04;98121.94;4168844;28;20652;-84
2022/08/28 05:06:14;;;;;;;17.63;15.83;;;;;;;20.07;99.32;98114.31;4173165;28;21248;-85
2022/08/28 05:08:19;;;;;;;17.03;15.30;;;;;;;20.08;99.51;98114.13;4171418;28;20655;-85
2022/08/28 05:10:22;;;;;;;17.33;14.90;;;;;;;20.12;99.08;98115.50;4171859;28;20703;-85
2022/08/28 05:12:25;;;;;;;16.57;14.83;;;;;;;20.14;100.00;98121.44;4178077;28;20636;-84
2022/08/28 05:14:29;;;;;;;17.50;15.70;;;;;;;20.11;100.00;98119.13;4171910;28;20621;-85
2022/08/28 05:16:39;;;;;;;18.27;15.90;;;;;;;20.12;99.98;98119.97;4170899;28;20664;-85
2022/08/28 05:18:42;;;;;;;16.53;14.83;;;;;;;20.10;100.00;98122.78;4169935;28;20633;-85
2022/08/28 05:20:47;;;;;;;17.43;15.60;;;;;;;20.10;100.00;98116.63;4171039;28;20624;-85
2022/08/28 05:22:50;;;;;;;18.07;15.30;;;;;;;20.09;100.00;98112.34;4171458;28;21080;-85
2022/08/28 05:24:53;;;;;;;20.47;15.03;;;;;;;20.12;98.59;98120.78;4155695;28;20645;-85
2022/08/28 05:26:56;;;;;;;17.50;14.53;;;;;;;20.14;99.30;98121.44;4176495;28;20643;-84
2022/08/28 05:28:59;;;;;;;20.00;15.93;;;;;;;20.19;99.75;98123.59;4177760;28;20626;-85
2022/08/28 05:31:09;;;;;;;19.80;15.20;;;;;;;20.23;98.99;98123.13;4170232;28;20628;-85
2022/08/28 05:33:14;;;;;;;17.90;15.10;;;;;;;20.26;98.81;98121.97;4171939;28;20680;-85
2022/08/28 05:35:17;;;;;;;20.10;16.50;;;;;;;20.26;98.70;98119.31;4175286;28;20992;-85
2022/08/28 05:37:21;;;;;;;18.30;16.30;;;;;;;20.24;97.67;98129.25;4177294;28;20624;-84
2022/08/28 05:39:24;;;;;;;25.23;16.20;;;;;;;20.24;98.79;98126.63;4182037;28;20627;-85
2022/08/28 05:41:29;;;;;;;20.53;16.70;;;;;;;20.23;98.68;98131.06;4172372;28;20606;-84
2022/08/28 05:43:32;;;;;;;19.50;16.07;;;;;;;20.28;98.15;98128.75;4170782;28;20629;-84
2022/08/28 05:45:35;;;;;;;18.10;14.67;;;;;;;20.33;99.21;98137.06;4170483;28;20644;-85
2022/08/28 05:47:38;;;;;;;17.77;15.97;;;;;;;20.37;99.03;98144.50;4177900;28;20624;-85
2022/08/28 05:49:42;;;;;;;17.57;15.40;;;;;;;20.43;98.58;98137.72;4177690;28;20672;-84
2022/08/28 05:51:46;;;;;;;17.47;15.63;;;;;;;20.47;99.13;98145.16;4178301;28;21272;-85
2022/08/28 05:53:49;;;;;;;19.13;15.30;;;;;;;20.50;98.40;98136.88;4172966;28;21061;-84
2022/08/28 05:55:52;;;;;;;18.00;16.10;;;;;;;20.53;98.48;98146.34;4180625;28;20862;-85
2022/08/28 05:58:27;;;;;;;17.53;15.70;;;;;;;20.55;97.16;98141.69;4163960;28;20735;-85
2022/08/28 06:00:20;;;;;;;19.73;15.80;;;;;;;20.57;97.70;98145.03;4174779;28;21050;-85
2022/08/28 06:02:23;;;;;;;19.07;16.10;;;;;;;20.59;98.13;98140.38;4172316;28;20629;-85
2022/08/28 06:04:27;;;;;;;19.37;15.30;;;;;;;20.62;97.18;98148.81;4176598;28;20678;-85
2022/08/28 06:06:34;;;;;;;16.50;14.73;;;;;;;20.65;98.39;98148.50;4172062;28;20648;-85
2022/08/28 06:08:37;;;;;;;17.20;15.17;;;;;;;20.69;97.34;98144.56;4173078;28;21296;-85
2022/08/28 06:11:01;;;;;;;17.57;15.40;;;;;;;20.73;97.37;98153.00;4174868;28;20633;-85
2022/08/28 06:13:04;;;;;;;16.90;15.10;;;;;;;20.76;97.00;98153.50;4177953;28;20682;-85
2022/08/28 06:15:09;;;;;;;18.47;14.40;;;;;;;20.81;96.90;98149.38;4180523;28;20699;-85
2022/08/28 06:17:12;;;;;;;18.93;16.43;;;;;;;20.87;96.68;98150.53;4176378;28;21080;-85
2022/08/28 06:19:16;;;;;;;20.30;14.10;;;;;;;20.91;96.49;98154.50;4171469;28;20622;-84
2022/08/28 06:21:19;;;;;;;16.37;14.67;;;;;;;20.97;96.36;98153.81;4172251;28;21245;-85
2022/08/28 06:23:24;;;;;;;16.80;15.00;;;;;;;21.02;96.77;98157.66;4177262;28;20627;-85
2022/08/28 06:25:27;;;;;;;16.90;14.27;;;;;;;21.09;96.44;98153.31;4174518;28;20731;-84
2022/08/28 06:27:32;;;;;;;15.10;13.60;;;;;;;21.13;96.19;98159.94;4163260;28;21374;-85
2022/08/28 06:29:36;;;;;;;15.77;14.20;;;;;;;21.20;96.16;98150.31;4181339;28;21006;-85
2022/08/28 06:31:39;;;;;;;16.97;13.13;;;;;;;21.25;95.74;98150.63;4166627;28;20649;-85
2022/08/28 06:33:42;;;;;;;15.80;13.60;;;;;;;21.31;96.01;98156.09;4170227;28;20729;-84
2022/08/28 06:35:48;;;;;;;15.77;12.80;;;;;;;21.37;95.21;98159.91;4177338;28;20617;-84
2022/08/28 06:37:51;;;;;;;15.17;12.97;;;;;;;21.43;95.55;98157.38;4160343;28;21018;-85
2022/08/28 06:39:55;;;;;;;16.37;12.87;;;;;;;21.48;94.82;98157.72;4180370;28;20629;-85
2022/08/28 06:41:58;;;;;;;17.70;13.23;;;;;;;21.57;94.17;98159.38;4170135;28;21248;-85
2022/08/28 06:44:03;;;;;;;13.60;12.20;;;;;;;21.61;93.77;98163.34;4163004;28;20637;-84
2022/08/28 06:46:06;;;;;;;15.17;12.20;;;;;;;21.66;93.38;98163.66;4176133;28;20632;-85
2022/08/28 06:48:10;;;;;;;16.03;13.50;;;;;;;21.72;92.92;98170.94;4175900;28;20739;-85
2022/08/28 06:50:14;;;;;;;16.47;12.97;;;;;;;21.79;92.98;98170.06;4177981;28;20617;-85
2022/08/28 06:52:17;;;;;;;15.20;12.50;;;;;;;21.85;92.58;98168.56;4175915;28;20624;-85
2022/08/28 06:54:21;;;;;;;15.33;13.00;;;;;;;21.91;91.50;98170.53;4162528;28;20766;-85
2022/08/28 06:56:27;;;;;;;15.10;12.67;;;;;;;21.92;91.38;98173.03;4179314;28;21077;-87
2022/08/28 06:58:31;;;;;;;16.43;13.03;;;;;;;21.94;91.35;98178.97;4176076;28;20633;-87
2022/08/28 07:00:35;;;;;;;16.53;12.97;;;;;;;21.96;90.99;98182.28;4173759;28;20967;-85
2022/08/28 07:02:38;;;;;;;15.50;13.17;;;;;;;21.96;90.44;98171.66;4171111;28;20694;-85
2022/08/28 07:04:42;;;;;;;16.80;13.30;;;;;;;21.98;89.56;98177.66;4170443;28;21020;-85
2022/08/28 07:06:48;;;;;;;16.07;13.70;;;;;;;21.96;88.66;98181.47;4172712;28;20651;-85
2022/08/28 07:08:59;;;;;;;16.53;12.87;;;;;;;21.96;89.55;98176.16;4176789;28;20697;-85
2022/08/28 07:11:09;;;;;;;15.47;13.87;;;;;;;22.02;89.31;98186.91;4175699;28;20629;-84
2022/08/28 07:13:14;;;;;;;15.03;13.20;;;;;;;22.07;89.73;98186.38;4179854;28;20634;-85
2022/08/28 07:15:17;;;;;;;14.83;12.30;;;;;;;22.08;88.47;98188.06;4175439;28;20637;-86
2022/08/28 07:17:22;;;;;;;15.17;12.50;;;;;;;22.04;87.47;98184.09;4173506;28;20658;-86
2022/08/28 07:19:25;;;;;;;17.53;12.47;;;;;;;22.01;88.11;98185.28;4173028;28;20709;-85
2022/08/28 07:21:29;;;;;;;16.67;14.00;;;;;;;22.03;87.32;98185.09;4175620;28;20677;-85
2022/08/28 07:23:34;;;;;;;16.97;13.20;;;;;;;21.93;87.59;98179.16;4173440;28;21112;-84
2022/08/28 07:25:40;;;;;;;15.03;13.43;;;;;;;21.85;87.71;98185.31;4172600;28;20712;-85
2022/08/28 07:27:43;;;;;;;15.17;12.83;;;;;;;21.82;87.98;98185.66;4180255;28;20619;-85
2022/08/28 07:29:47;;;;;;;15.53;13.30;;;;;;;21.79;87.67;98188.66;4190639;28;20604;-85
2022/08/28 07:31:52;;;;;;;16.43;13.30;;;;;;;21.86;88.13;98202.94;4170464;28;20635;-85
2022/08/28 07:33:56;;;;;;;19.33;13.70;;;;;;;21.93;88.75;98198.56;4174805;28;20614;-85
2022/08/28 07:36:00;;;;;;;14.60;12.87;;;;;;;22.01;88.40;98197.72;4176251;28;20608;-85
2022/08/28 07:38:03;;;;;;;17.67;13.90;;;;;;;22.06;87.76;98193.53;4174274;28;20714;-85
2022/08/28 07:40:08;;;;;;;18.37;13.60;;;;;;;22.12;88.20;98200.81;4174438;28;20680;-86
2022/08/28 07:44:47;;;;;;;17.17;13.83;;;;;;;22.12;87.02;98200.81;4176412;28;20636;-85
2022/08/28 07:44:49;;;;;;;15.27;13.67;;;;;;;22.15;87.42;98197.00;4169184;28;20633;-85
2022/08/28 07:46:54;;;;;;;14.50;13.10;;;;;;;22.23;87.44;98209.25;4157971;28;20691;-85
2022/08/28 07:48:58;;;;;;;14.90;12.77;;;;;;;22.32;87.68;98205.56;4174485;28;20647;-85
2022/08/28 07:51:01;;;;;;;14.97;13.50;;;;;;;22.41;86.94;98209.00;4173758;28;20665;-85
2022/08/28 07:53:07;;;;;;;14.60;12.83;;;;;;;22.52;87.26;98216.59;4172401;28;20641;-85
2022/08/28 07:55:10;;;;;;;16.17;13.70;;;;;;;22.61;86.65;98221.66;4176380;28;20630;-85
2022/08/28 07:57:15;;;;;;;14.43;12.00;;;;;;;22.71;86.17;98218.81;4179978;28;20659;-85
2022/08/28 07:59:19;;;;;;;15.03;12.60;;;;;;;22.75;85.00;98224.41;4179516;28;20609;-84
2022/08/28 08:01:24;;;;;;;15.43;13.23;;;;;;;22.77;84.21;98222.41;4175100;28;21177;-85
2022/08/28 08:03:31;;;;;;;17.20;13.80;;;;;;;22.79;85.56;98219.56;4174752;28;20632;-85
2022/08/28 08:05:34;;;;;;;13.40;12.10;;;;;;;22.89;85.93;98226.31;4162529;28;20646;-85
2022/08/28 08:07:38;;;;;;;14.00;12.37;;;;;;;23.01;84.97;98229.41;4188467;28;21319;-85
2022/08/28 08:09:45;;;;;;;13.30;11.90;;;;;;;23.09;85.16;98227.50;4191038;28;20624;-85
2022/08/28 08:11:48;;;;;;;14.23;12.67;;;;;;;23.17;84.14;98229.28;4160166;28;21211;-86
2022/08/28 08:13:53;;;;;;;15.33;13.73;;;;;;;23.22;84.22;98235.72;4173610;28;20692;-85
2022/08/28 08:16:00;;;;;;;18.00;12.90;;;;;;;23.28;83.57;98233.16;4175384;28;21250;-85
2022/08/28 08:18:04;;;;;;;16.27;13.10;;;;;;;23.36;84.01;98234.94;4163796;28;20663;-85
2022/08/28 08:20:09;;;;;;;13.33;11.93;;;;;;;23.41;84.04;98230.72;4152338;28;20632;-85
2022/08/28 08:22:13;;;;;;;14.17;12.10;;;;;;;23.48;83.93;98231.66;4176659;28;21193;-85
2022/08/28 08:24:19;;;;;;;14.47;11.93;;;;;;;23.59;82.65;98236.56;4170213;28;21249;-85
2022/08/28 08:26:25;;;;;;;13.60;11.97;;;;;;;23.70;83.44;98230.81;4178735;28;21211;-85
2022/08/28 08:28:29;;;;;;;14.17;12.20;;;;;;;23.82;82.44;98234.69;4180499;28;20726;-85
2022/08/28 08:30:32;;;;;;;12.43;11.13;;;;;;;23.86;82.55;98234.13;4171117;28;20630;-86
2022/08/28 08:32:38;;;;;;;12.50;11.30;;;;;;;23.90;81.52;98237.25;4179790;28;20659;-86
2022/08/28 08:34:44;;;;;;;14.63;12.97;;;;;;;23.93;82.09;98244.88;4175286;28;21218;-85
2022/08/28 08:36:48;;;;;;;15.17;11.70;;;;;;;23.91;81.15;98246.91;4169395;28;20652;-85
2022/08/28 08:38:52;;;;;;;14.90;12.23;;;;;;;23.97;82.50;98244.31;4170928;28;21283;-85
2022/08/28 08:41:06;;;;;;;12.97;11.67;;;;;;;24.01;81.85;98242.94;4178536;28;20617;-86
2022/08/28 08:43:10;;;;;;;14.93;11.47;;;;;;;24.08;81.84;98251.03;4161956;28;20713;-85
2022/08/28 08:45:15;;;;;;;14.20;11.87;;;;;;;24.15;82.70;98245.59;4173409;28;20650;-85
2022/08/28 08:47:21;;;;;;;13.77;12.40;;;;;;;24.22;81.04;98249.19;4176090;28;20631;-85
2022/08/28 08:49:26;;;;;;;14.10;12.60;;;;;;;24.26;81.63;98255.78;4170630;28;20642;-85
2022/08/28 08:51:39;;;;;;;16.20;12.20;;;;;;;24.33;80.69;98254.06;4176691;28;20665;-85
2022/08/28 08:53:47;;;;;;;14.80;12.90;;;;;;;24.37;81.45;98251.84;4171297;28;21190;-85
2022/08/28 08:55:52;;;;;;;13.60;12.20;;;;;;;24.39;79.18;98249.84;4177617;28;20626;-85
2022/08/28 08:58:02;;;;;;;14.80;12.00;;;;;;;24.32;79.10;98256.91;4172574;28;20645;-85
2022/08/28 09:00:06;;;;;;;14.13;11.60;;;;;;;24.23;79.83;98242.00;4172219;28;20619;-85
2022/08/28 09:02:18;;;;;;;13.63;12.23;;;;;;;24.20;79.91;98245.03;4170842;28;20712;-85
2022/08/28 09:04:30;;;;;;;13.27;11.50;;;;;;;24.22;80.32;98246.53;4158344;28;20636;-85
2022/08/28 09:06:40;;;;;;;15.37;11.57;;;;;;;24.14;80.49;98250.28;4174072;28;21019;-85
2022/08/28 09:08:47;;;;;;;12.03;10.83;;;;;;;24.14;80.29;98244.97;4170173;28;20665;-85
2022/08/28 09:10:59;;;;;;;13.87;11.73;;;;;;;24.14;81.20;98252.97;4166315;28;20730;-85
2022/08/28 09:13:08;;;;;;;13.00;11.60;;;;;;;24.13;81.60;98256.63;4178091;28;20715;-85
2022/08/28 09:15:14;;;;;;;12.93;10.97;;;;;;;24.11;81.39;98258.66;4166542;28;20775;-85
2022/08/28 09:17:19;;;;;;;12.73;11.40;;;;;;;24.13;81.40;98257.47;4173666;28;20667;-85
2022/08/28 09:19:22;;;;;;;16.40;10.63;;;;;;;24.15;81.63;98256.25;4153983;28;20766;-86
2022/08/28 09:21:31;;;;;;;13.10;11.23;;;;;;;24.17;80.72;98256.91;4169358;28;20633;-85
2022/08/28 09:23:34;;;;;;;10.47;9.43;;;;;;;24.25;80.46;98251.47;4153406;28;20615;-85
2022/08/28 09:25:53;;;;;;;12.00;10.70;;;;;;;24.38;80.83;98257.00;4171048;28;20689;-85
2022/08/28 09:28:06;;;;;;;14.50;10.80;;;;;;;24.52;80.90;98255.31;4173875;28;20624;-86
2022/08/28 09:30:10;;;;;;;15.37;10.33;;;;;;;24.54;79.85;98258.66;4172625;28;20650;-85
2022/08/28 09:32:22;;;;;;;12.00;10.63;;;;;;;24.60;80.42;98255.22;4173609;28;20640;-86
2022/08/28 09:34:28;;;;;;;10.40;9.40;;;;;;;24.68;80.27;98253.28;4162379;28;20684;-85
2022/08/28 09:36:33;;;;;;;10.93;9.90;;;;;;;24.79;79.60;98261.63;4169947;28;20640;-85